Time;durP1;ratioP1;P1;durP2;ratioP2;P2;SDS_P1;SDS_P2;PMS_P1;PMS_P2;Temp;Humidity;BMP_temperature;BMP_pressure;BME280_temperature;BME280_humidity;BME280_pressure;Samples;Min_cycle;Max_cycle;Signal;HPM_P1;HPM_P2
2022/04/04 00:00:06;;;;;;;6.43;5.30;;;;;;;;;;5003914;28;20280;-54
2022/04/04 00:02:32;;;;;;;6.20;5.40;;;;;;;;;;5005097;28;20199;-54
2022/04/04 00:04:58;;;;;;;7.27;5.10;;;;;;;;;;4995266;28;20201;-55
2022/04/04 00:07:25;;;;;;;6.13;5.47;;;;;;;;;;4997154;28;20217;-55
2022/04/04 00:09:51;;;;;;;6.37;5.33;;;;;;;;;;4995464;28;20702;-54
2022/04/04 00:12:17;;;;;;;6.87;5.00;;;;;;;;;;5001069;28;20197;-57
2022/04/04 00:14:43;;;;;;;5.63;4.90;;;;;;;;;;5005067;28;20200;-53
2022/04/04 00:17:09;;;;;;;7.93;5.00;;;;;;;;;;5001962;28;20569;-55
2022/04/04 00:19:35;;;;;;;5.67;5.03;;;;;;;;;;4997004;28;20193;-54
2022/04/04 00:22:01;;;;;;;6.93;4.87;;;;;;;;;;4993812;28;20647;-55
2022/04/04 00:24:27;;;;;;;6.40;4.50;;;;;;;;;;4995113;28;20197;-54
2022/04/04 00:26:53;;;;;;;5.80;5.03;;;;;;;;;;4995454;28;20237;-54
2022/04/04 00:29:19;;;;;;;5.30;4.80;;;;;;;;;;5003057;28;20193;-55
2022/04/04 00:31:45;;;;;;;5.77;5.00;;;;;;;;;;5002334;28;20563;-55
2022/04/04 00:34:11;;;;;;;5.20;4.47;;;;;;;;;;4995835;28;20186;-57
2022/04/04 00:36:39;;;;;;;6.07;4.80;;;;;;;;;;4996467;28;20318;-55
2022/04/04 00:39:05;;;;;;;8.97;5.20;;;;;;;;;;4999439;28;20220;-54
2022/04/04 00:41:30;;;;;;;5.77;4.90;;;;;;;;;;5007334;28;20200;-55
2022/04/04 00:43:57;;;;;;;5.40;4.70;;;;;;;;;;4997896;28;20294;-54
2022/04/04 00:46:23;;;;;;;6.23;4.63;;;;;;;;;;4989659;28;20332;-54
2022/04/04 00:48:49;;;;;;;5.90;4.43;;;;;;;;;;4998763;28;20205;-54
2022/04/04 00:51:15;;;;;;;6.33;4.77;;;;;;;;;;5000869;28;20204;-55
2022/04/04 00:53:41;;;;;;;6.00;5.17;;;;;;;;;;5002505;28;20271;-54
2022/04/04 00:56:08;;;;;;;5.50;4.87;;;;;;;;;;4987563;28;20665;-55
2022/04/04 00:58:34;;;;;;;5.27;4.77;;;;;;;;;;5003116;28;20280;-55
2022/04/04 01:01:00;;;;;;;5.63;5.13;;;;;;;;;;4995134;28;20791;-55
2022/04/04 01:03:26;;;;;;;4.80;4.30;;;;;;;;;;4994521;28;20224;-55
2022/04/04 01:05:52;;;;;;;5.70;5.20;;;;;;;;;;4989691;28;20189;-55
2022/04/04 01:08:18;;;;;;;5.10;4.60;;;;;;;;;;5004402;28;20636;-54
2022/04/04 01:10:44;;;;;;;5.90;4.90;;;;;;;;;;5005967;28;20575;-55
2022/04/04 01:13:13;;;;;;;6.00;5.00;;;;;;;;;;5001027;28;20213;-55
2022/04/04 01:15:39;;;;;;;6.40;4.83;;;;;;;;;;4995717;28;20220;-55
2022/04/04 01:18:05;;;;;;;5.90;5.37;;;;;;;;;;4997541;28;20301;-55
2022/04/04 01:20:31;;;;;;;5.70;5.10;;;;;;;;;;4995242;28;20201;-54
2022/04/04 01:22:57;;;;;;;6.30;5.23;;;;;;;;;;5001880;28;20213;-55
2022/04/04 01:25:27;;;;;;;6.50;5.30;;;;;;;;;;4998925;28;20773;-56
2022/04/04 01:27:54;;;;;;;6.10;5.50;;;;;;;;;;5001718;28;20580;-55
2022/04/04 01:30:22;;;;;;;6.50;5.57;;;;;;;;;;5001367;28;20215;-55
2022/04/04 01:32:49;;;;;;;8.87;5.90;;;;;;;;;;5001983;28;20200;-55
2022/04/04 01:35:15;;;;;;;6.83;5.33;;;;;;;;;;4994443;28;25428;-55
2022/04/04 01:37:41;;;;;;;6.43;5.03;;;;;;;;;;4993110;28;20662;-55
2022/04/04 01:40:08;;;;;;;6.33;5.10;;;;;;;;;;4996504;28;20197;-55
2022/04/04 01:42:35;;;;;;;7.27;5.70;;;;;;;;;;4998389;28;20240;-55
2022/04/04 01:45:01;;;;;;;7.20;5.83;;;;;;;;;;5000081;28;20201;-55
2022/04/04 01:47:27;;;;;;;6.70;5.43;;;;;;;;;;4983335;28;20216;-54
2022/04/04 01:49:53;;;;;;;7.13;6.00;;;;;;;;;;4993665;28;20294;-54
2022/04/04 01:52:19;;;;;;;6.70;5.27;;;;;;;;;;4990389;28;20662;-52
2022/04/04 01:54:45;;;;;;;6.83;5.20;;;;;;;;;;4992296;28;20200;-55
2022/04/04 01:57:11;;;;;;;7.00;5.63;;;;;;;;;;4989720;28;20193;-55
2022/04/04 01:59:37;;;;;;;7.20;5.03;;;;;;;;;;5000741;28;20262;-56
2022/04/04 02:02:03;;;;;;;5.73;5.17;;;;;;;;;;5000151;28;20284;-54
2022/04/04 02:04:29;;;;;;;5.90;5.10;;;;;;;;;;5000918;28;20199;-56
2022/04/04 02:06:55;;;;;;;6.27;5.67;;;;;;;;;;4994204;28;20460;-56
2022/04/04 02:09:21;;;;;;;9.17;5.60;;;;;;;;;;4992948;28;20292;-55
2022/04/04 02:11:48;;;;;;;5.63;5.10;;;;;;;;;;4990813;28;20711;-56
2022/04/04 02:14:14;;;;;;;6.70;5.60;;;;;;;;;;4993899;28;20189;-56
2022/04/04 02:16:40;;;;;;;9.93;5.70;;;;;;;;;;4992812;28;20286;-55
2022/04/04 02:19:06;;;;;;;5.63;5.03;;;;;;;;;;4999046;28;20201;-55
2022/04/04 02:21:32;;;;;;;6.63;5.37;;;;;;;;;;5006324;28;20197;-55
2022/04/04 02:23:58;;;;;;;8.27;5.50;;;;;;;;;;5004568;28;20563;-55
2022/04/04 02:26:24;;;;;;;7.60;5.80;;;;;;;;;;4996393;28;20240;-56
2022/04/04 02:28:50;;;;;;;6.23;5.57;;;;;;;;;;5004936;28;20671;-56
2022/04/04 02:31:16;;;;;;;7.03;5.70;;;;;;;;;;5003862;28;20265;-56
2022/04/04 02:33:42;;;;;;;7.43;5.80;;;;;;;;;;5007193;28;20224;-56
2022/04/04 02:36:08;;;;;;;8.20;5.50;;;;;;;;;;5004160;28;20597;-56
2022/04/04 02:38:34;;;;;;;6.90;5.30;;;;;;;;;;5004928;28;20232;-56
2022/04/04 02:41:00;;;;;;;9.00;6.00;;;;;;;;;;5001162;28;20205;-56
2022/04/04 02:43:26;;;;;;;7.63;5.97;;;;;;;;;;5005803;28;20193;-56
2022/04/04 02:45:52;;;;;;;6.87;6.03;;;;;;;;;;4990874;28;20287;-55
2022/04/04 02:48:18;;;;;;;6.60;5.90;;;;;;;;;;4987094;28;20209;-55
2022/04/04 02:50:44;;;;;;;8.33;5.87;;;;;;;;;;4997086;28;20570;-54
2022/04/04 02:53:11;;;;;;;7.33;6.57;;;;;;;;;;4997834;28;20220;-56
2022/04/04 02:58:21;;;;;;;7.30;6.57;;;;;;;;;;4994686;28;20193;-55
2022/04/04 03:00:47;;;;;;;14.30;7.03;;;;;;;;;;4994589;28;20193;-56
2022/04/04 03:03:14;;;;;;;9.77;7.77;;;;;;;;;;4991159;28;20204;-55
2022/04/04 03:05:40;;;;;;;10.87;7.73;;;;;;;;;;4996570;28;20369;-56
2022/04/04 03:08:06;;;;;;;9.10;7.10;;;;;;;;;;4993773;28;20846;-55
2022/04/04 03:10:32;;;;;;;12.47;7.90;;;;;;;;;;4996392;28;20189;-56
2022/04/04 03:13:00;;;;;;;14.70;8.70;;;;;;;;;;4997669;28;20203;-56
2022/04/04 03:15:26;;;;;;;8.60;7.70;;;;;;;;;;5007718;28;20220;-56
2022/04/04 03:17:53;;;;;;;10.87;9.37;;;;;;;;;;5004699;28;20189;-56
2022/04/04 03:20:19;;;;;;;10.50;8.93;;;;;;;;;;4996791;28;20304;-55
2022/04/04 03:22:46;;;;;;;13.97;8.80;;;;;;;;;;4989561;28;20688;-56
2022/04/04 03:25:12;;;;;;;13.23;9.33;;;;;;;;;;4994758;28;20697;-55
2022/04/04 03:27:39;;;;;;;13.30;8.60;;;;;;;;;;5001442;28;20241;-55
2022/04/04 03:30:06;;;;;;;11.27;9.40;;;;;;;;;;5001742;28;20216;-56
2022/04/04 03:32:32;;;;;;;13.27;9.37;;;;;;;;;;5004357;28;20190;-56
2022/04/04 03:34:58;;;;;;;10.23;9.13;;;;;;;;;;5004975;28;20204;-55
2022/04/04 03:37:24;;;;;;;14.07;9.20;;;;;;;;;;5004202;28;20194;-56
2022/04/04 03:39:50;;;;;;;12.43;9.03;;;;;;;;;;5004104;28;20196;-56
2022/04/04 03:42:16;;;;;;;11.50;8.93;;;;;;;;;;5003139;28;20276;-55
2022/04/04 03:44:42;;;;;;;11.87;9.30;;;;;;;;;;4995389;28;20217;-56
2022/04/04 03:47:10;;;;;;;12.07;9.30;;;;;;;;;;5003917;28;20276;-56
2022/04/04 03:49:36;;;;;;;12.10;9.83;;;;;;;;;;5002703;28;20189;-56
2022/04/04 03:52:02;;;;;;;9.50;8.60;;;;;;;;;;4999226;28;20190;-56
2022/04/04 03:54:28;;;;;;;12.60;9.90;;;;;;;;;;5004733;28;20200;-56
2022/04/04 03:56:54;;;;;;;10.60;9.50;;;;;;;;;;4987645;28;20590;-56
2022/04/04 03:59:20;;;;;;;10.43;9.43;;;;;;;;;;4995847;28;20280;-56
2022/04/04 04:01:47;;;;;;;12.10;8.97;;;;;;;;;;4987829;28;20201;-55
2022/04/04 04:04:13;;;;;;;11.70;9.40;;;;;;;;;;4993367;28;20205;-56
2022/04/04 04:06:39;;;;;;;13.50;9.73;;;;;;;;;;4985904;28;20635;-56
2022/04/04 04:09:05;;;;;;;10.57;8.77;;;;;;;;;;4996900;28;20609;-56
2022/04/04 04:11:31;;;;;;;10.70;9.17;;;;;;;;;;4988981;28;20197;-56
2022/04/04 04:13:57;;;;;;;12.07;9.93;;;;;;;;;;4992150;28;20199;-56
2022/04/04 04:16:23;;;;;;;10.50;9.33;;;;;;;;;;4992882;28;20215;-55
2022/04/04 04:18:49;;;;;;;10.47;8.97;;;;;;;;;;4983849;28;20243;-56
2022/04/04 04:21:16;;;;;;;13.30;9.43;;;;;;;;;;4980657;28;20645;-56
2022/04/04 04:23:42;;;;;;;13.37;9.20;;;;;;;;;;5000861;28;20215;-56
2022/04/04 04:26:09;;;;;;;11.93;9.60;;;;;;;;;;5003189;28;20237;-55
2022/04/04 04:28:35;;;;;;;13.10;9.87;;;;;;;;;;5005122;28;20225;-55
2022/04/04 04:31:00;;;;;;;11.67;9.03;;;;;;;;;;5007511;28;20208;-56
2022/04/04 04:33:26;;;;;;;12.10;9.47;;;;;;;;;;5003549;28;20325;-54
2022/04/04 04:35:53;;;;;;;11.53;9.37;;;;;;;;;;4994181;28;20197;-56
2022/04/04 04:38:19;;;;;;;14.17;10.23;;;;;;;;;;5000264;28;20292;-56
2022/04/04 04:40:45;;;;;;;12.40;9.80;;;;;;;;;;5010068;28;20825;-56
2022/04/04 04:43:11;;;;;;;14.67;9.87;;;;;;;;;;5006441;28;20198;-54
2022/04/04 04:45:37;;;;;;;13.50;9.87;;;;;;;;;;5000570;28;20197;-56
2022/04/04 04:48:03;;;;;;;15.73;9.53;;;;;;;;;;5002912;28;20224;-56
2022/04/04 04:50:29;;;;;;;15.63;9.70;;;;;;;;;;4996692;28;20956;-56
2022/04/04 04:52:56;;;;;;;15.80;10.50;;;;;;;;;;4992774;28;20718;-55
2022/04/04 04:55:22;;;;;;;18.53;10.27;;;;;;;;;;4982650;28;20635;-55
2022/04/04 04:57:48;;;;;;;12.97;9.37;;;;;;;;;;4987505;28;20197;-55
2022/04/04 05:00:15;;;;;;;14.37;10.27;;;;;;;;;;4995393;28;20193;-55
2022/04/04 05:02:41;;;;;;;15.03;9.60;;;;;;;;;;4995891;28;20197;-55
2022/04/04 05:05:07;;;;;;;14.77;9.00;;;;;;;;;;4991880;28;20201;-54
2022/04/04 05:07:33;;;;;;;15.83;8.83;;;;;;;;;;4979652;28;20774;-55
2022/04/04 05:10:00;;;;;;;13.53;9.23;;;;;;;;;;4980315;28;20670;-56
2022/04/04 05:12:26;;;;;;;11.10;9.13;;;;;;;;;;4965318;28;20630;-55
2022/04/04 05:14:52;;;;;;;12.17;9.30;;;;;;;;;;4983609;28;20275;-56
2022/04/04 05:17:18;;;;;;;11.20;9.33;;;;;;;;;;4995932;28;20198;-56
2022/04/04 05:19:44;;;;;;;16.90;9.77;;;;;;;;;;4997748;28;20270;-56
2022/04/04 05:22:10;;;;;;;17.20;9.70;;;;;;;;;;4999167;28;20201;-57
2022/04/04 05:24:36;;;;;;;11.30;9.63;;;;;;;;;;4997781;28;20197;-57
2022/04/04 05:27:02;;;;;;;13.30;9.60;;;;;;;;;;4993104;28;20336;-55
2022/04/04 05:29:28;;;;;;;14.00;10.33;;;;;;;;;;5001534;28;20223;-57
2022/04/04 05:31:55;;;;;;;11.73;9.60;;;;;;;;;;5005218;28;20579;-57
2022/04/04 05:34:21;;;;;;;11.47;9.70;;;;;;;;;;5006694;28;20264;-56
2022/04/04 05:36:47;;;;;;;16.50;9.77;;;;;;;;;;5007046;28;20193;-57
2022/04/04 05:39:13;;;;;;;12.97;9.20;;;;;;;;;;5006460;28;20197;-57
2022/04/04 05:41:39;;;;;;;14.63;9.60;;;;;;;;;;5009965;28;20208;-57
2022/04/04 05:44:06;;;;;;;11.30;9.00;;;;;;;;;;5004546;28;20223;-57
2022/04/04 05:46:32;;;;;;;12.07;8.60;;;;;;;;;;4998591;28;20297;-56
2022/04/04 05:48:58;;;;;;;10.13;8.23;;;;;;;;;;4997342;28;20255;-57
2022/04/04 05:51:24;;;;;;;15.07;8.77;;;;;;;;;;4997619;28;20273;-57
2022/04/04 05:53:50;;;;;;;11.23;8.20;;;;;;;;;;4997673;28;20200;-56
2022/04/04 05:56:16;;;;;;;8.57;7.47;;;;;;;;;;5014914;28;20222;-57
2022/04/04 05:58:42;;;;;;;11.83;7.90;;;;;;;;;;5015966;28;20240;-56
2022/04/04 06:01:08;;;;;;;11.37;8.33;;;;;;;;;;5012267;28;20192;-56
2022/04/04 06:03:35;;;;;;;11.13;7.50;;;;;;;;;;4999429;28;20201;-57
2022/04/04 06:06:02;;;;;;;11.77;8.73;;;;;;;;;;5006782;28;20272;-57
2022/04/04 06:08:28;;;;;;;8.93;7.40;;;;;;;;;;5003747;28;20227;-56
2022/04/04 06:10:54;;;;;;;10.53;7.33;;;;;;;;;;5013839;28;20643;-57
2022/04/04 06:13:20;;;;;;;11.23;7.73;;;;;;;;;;5013559;28;20516;-55
2022/04/04 06:15:47;;;;;;;9.77;7.40;;;;;;;;;;5014993;28;20608;-56
2022/04/04 06:18:13;;;;;;;9.40;6.73;;;;;;;;;;5008346;28;20339;-56
2022/04/04 06:20:40;;;;;;;7.97;6.97;;;;;;;;;;5008392;28;20216;-57
2022/04/04 06:23:06;;;;;;;8.77;6.63;;;;;;;;;;5003707;28;20202;-56
2022/04/04 06:25:32;;;;;;;9.50;7.20;;;;;;;;;;5006260;28;20201;-57
2022/04/04 06:27:58;;;;;;;10.07;7.10;;;;;;;;;;5010681;28;20299;-57
2022/04/04 06:30:25;;;;;;;8.97;6.40;;;;;;;;;;5012033;28;20264;-57
2022/04/04 06:32:51;;;;;;;14.83;6.40;;;;;;;;;;5009741;28;20673;-57
2022/04/04 06:35:17;;;;;;;9.23;6.67;;;;;;;;;;5008810;28;20272;-56
2022/04/04 06:37:43;;;;;;;8.23;6.80;;;;;;;;;;5006313;28;20248;-57
2022/04/04 06:40:10;;;;;;;8.17;6.37;;;;;;;;;;5010558;28;20276;-57
2022/04/04 06:42:36;;;;;;;9.33;6.07;;;;;;;;;;5012609;28;20197;-57
2022/04/04 06:45:03;;;;;;;9.03;6.03;;;;;;;;;;5000778;28;20197;-56
2022/04/04 06:47:30;;;;;;;9.80;5.40;;;;;;;;;;5001903;28;20225;-57
2022/04/04 06:49:56;;;;;;;8.07;6.00;;;;;;;;;;5008094;28;20435;-55
2022/04/04 06:52:22;;;;;;;7.43;5.20;;;;;;;;;;5011362;28;20742;-57
2022/04/04 06:54:48;;;;;;;6.43;5.50;;;;;;;;;;5009817;28;20196;-57
2022/04/04 06:57:15;;;;;;;8.00;5.50;;;;;;;;;;5000838;28;20874;-56
2022/04/04 06:59:42;;;;;;;9.90;5.37;;;;;;;;;;4997137;28;20615;-57
2022/04/04 07:02:08;;;;;;;6.07;5.47;;;;;;;;;;4998842;28;20213;-56
2022/04/04 07:04:34;;;;;;;8.73;5.50;;;;;;;;;;4997605;28;20197;-57
2022/04/04 07:07:00;;;;;;;12.47;5.60;;;;;;;;;;5002198;28;20215;-57
2022/04/04 07:09:26;;;;;;;5.83;5.17;;;;;;;;;;5007427;28;20256;-57
2022/04/04 07:11:52;;;;;;;8.23;5.30;;;;;;;;;;4999198;28;20567;-57
2022/04/04 07:14:18;;;;;;;5.30;4.80;;;;;;;;;;5003616;28;20224;-57
2022/04/04 07:16:44;;;;;;;7.53;5.07;;;;;;;;;;4999170;28;20246;-56
2022/04/04 07:19:15;;;;;;;7.73;4.40;;;;;;;;;;5003026;28;20315;-57
2022/04/04 07:21:41;;;;;;;7.83;4.63;;;;;;;;;;4999526;28;20605;-57
2022/04/04 07:24:07;;;;;;;5.20;4.73;;;;;;;;;;5006997;28;20658;-56
2022/04/04 07:26:33;;;;;;;7.27;4.60;;;;;;;;;;5004953;28;20245;-57
2022/04/04 07:28:59;;;;;;;5.20;4.40;;;;;;;;;;5008341;28;20756;-56
2022/04/04 07:31:25;;;;;;;7.80;4.57;;;;;;;;;;5005281;28;20247;-57
2022/04/04 07:33:51;;;;;;;6.00;4.40;;;;;;;;;;5009355;28;20198;-56
2022/04/04 07:36:17;;;;;;;5.50;4.37;;;;;;;;;;4997585;28;20200;-57
2022/04/04 07:38:43;;;;;;;5.73;4.30;;;;;;;;;;5010362;28;20224;-57
2022/04/04 07:41:09;;;;;;;4.83;3.73;;;;;;;;;;5009125;28;20216;-56
2022/04/04 07:43:35;;;;;;;5.00;4.03;;;;;;;;;;5021148;28;20300;-56
2022/04/04 07:46:01;;;;;;;4.20;3.80;;;;;;;;;;4998872;28;20620;-56
2022/04/04 07:48:27;;;;;;;7.90;4.27;;;;;;;;;;4993705;28;20237;-57
2022/04/04 07:50:53;;;;;;;7.10;3.80;;;;;;;;;;4997254;28;20289;-57
2022/04/04 07:53:19;;;;;;;5.27;3.60;;;;;;;;;;5002886;28;20628;-56
2022/04/04 07:55:45;;;;;;;4.10;3.70;;;;;;;;;;4998282;28;20185;-57
2022/04/04 07:58:11;;;;;;;4.00;3.60;;;;;;;;;;5000307;28;20227;-56
2022/04/04 08:00:37;;;;;;;3.73;3.37;;;;;;;;;;5011498;28;20200;-57
2022/04/04 08:03:04;;;;;;;5.83;3.70;;;;;;;;;;5003414;28;20483;-57
2022/04/04 08:05:30;;;;;;;6.83;3.97;;;;;;;;;;4994095;28;20217;-57
2022/04/04 08:07:57;;;;;;;6.03;3.40;;;;;;;;;;4992082;28;20217;-57
2022/04/04 08:10:23;;;;;;;5.80;3.90;;;;;;;;;;4999777;28;20202;-57
2022/04/04 08:12:52;;;;;;;6.30;3.73;;;;;;;;;;4995589;28;20419;-57
2022/04/04 08:15:18;;;;;;;5.20;3.67;;;;;;;;;;5001308;28;20671;-57
2022/04/04 08:17:44;;;;;;;4.97;4.17;;;;;;;;;;4999969;28;20193;-57
2022/04/04 08:20:10;;;;;;;4.30;3.77;;;;;;;;;;5009420;28;20217;-57
2022/04/04 08:22:40;;;;;;;4.87;3.70;;;;;;;;;;5006333;28;20217;-57
2022/04/04 08:25:06;;;;;;;5.43;3.90;;;;;;;;;;5002336;28;20239;-57
2022/04/04 08:27:32;;;;;;;4.47;4.07;;;;;;;;;;5005357;28;20292;-57
2022/04/04 08:29:58;;;;;;;5.33;3.70;;;;;;;;;;5001125;28;21396;-57
2022/04/04 08:32:24;;;;;;;6.27;4.20;;;;;;;;;;5006906;28;20632;-57
2022/04/04 08:34:50;;;;;;;6.10;4.03;;;;;;;;;;5004843;28;20217;-57
2022/04/04 08:37:17;;;;;;;5.47;3.90;;;;;;;;;;5005793;28;20201;-57
2022/04/04 08:39:47;;;;;;;4.67;4.07;;;;;;;;;;5006271;28;21188;-56
2022/04/04 08:42:13;;;;;;;5.70;4.20;;;;;;;;;;5009523;28;20219;-57
2022/04/04 08:44:39;;;;;;;4.37;3.93;;;;;;;;;;5000437;28;20247;-58
2022/04/04 08:47:05;;;;;;;5.53;3.97;;;;;;;;;;5000884;28;20203;-57
2022/04/04 08:49:31;;;;;;;6.87;3.80;;;;;;;;;;4999320;28;20213;-57
2022/04/04 08:51:57;;;;;;;6.83;4.50;;;;;;;;;;5002319;28;21067;-58
2022/04/04 08:54:23;;;;;;;5.33;4.10;;;;;;;;;;5003654;28;20276;-58
2022/04/04 08:56:49;;;;;;;4.83;3.83;;;;;;;;;;4999768;28;20197;-57
2022/04/04 08:59:15;;;;;;;6.57;4.00;;;;;;;;;;5003168;28;20189;-57
2022/04/04 09:01:41;;;;;;;5.17;3.83;;;;;;;;;;5004177;28;20240;-56
2022/04/04 09:04:07;;;;;;;8.17;3.90;;;;;;;;;;4999654;28;20193;-58
2022/04/04 09:06:46;;;;;;;5.23;3.70;;;;;;;;;;4996530;28;20221;-57
2022/04/04 09:09:12;;;;;;;5.20;4.07;;;;;;;;;;5001779;28;20254;-57
2022/04/04 09:11:38;;;;;;;7.23;3.90;;;;;;;;;;5006888;28;20262;-57
2022/04/04 09:14:07;;;;;;;4.17;3.70;;;;;;;;;;5009341;28;20201;-57
2022/04/04 09:16:34;;;;;;;4.00;3.60;;;;;;;;;;5009143;28;20258;-58
2022/04/04 09:19:00;;;;;;;4.87;3.80;;;;;;;;;;5003538;28;20230;-57
2022/04/04 09:21:26;;;;;;;4.83;3.80;;;;;;;;;;5001495;28;20628;-56
2022/04/04 09:23:54;;;;;;;5.07;3.90;;;;;;;;;;4999743;28;20724;-56
2022/04/04 09:26:39;;;;;;;10.57;4.13;;;;;;;;;;4999065;28;20236;-57
2022/04/04 09:29:08;;;;;;;6.50;4.20;;;;;;;;;;5003558;28;20298;-56
2022/04/04 09:31:34;;;;;;;5.17;3.50;;;;;;;;;;5002361;28;20790;-57
2022/04/04 09:34:04;;;;;;;4.40;3.60;;;;;;;;;;5002324;28;20202;-57
2022/04/04 09:36:30;;;;;;;5.13;3.83;;;;;;;;;;5001756;28;20726;-57
2022/04/04 09:38:56;;;;;;;7.23;3.70;;;;;;;;;;5007122;28;20570;-57
2022/04/04 09:41:24;;;;;;;5.30;4.00;;;;;;;;;;5007851;28;20185;-58
2022/04/04 09:43:54;;;;;;;5.37;4.00;;;;;;;;;;5009110;28;20201;-57
2022/04/04 09:46:20;;;;;;;7.83;4.00;;;;;;;;;;4996688;28;20259;-57
2022/04/04 09:49:02;;;;;;;6.53;3.80;;;;;;;;;;5010389;28;20670;-57
2022/04/04 09:51:34;;;;;;;5.63;3.73;;;;;;;;;;5004390;28;20324;-57
2022/04/04 09:54:02;;;;;;;5.00;4.50;;;;;;;;;;5006686;28;20682;-57
2022/04/04 09:56:28;;;;;;;5.23;3.80;;;;;;;;;;5000370;28;20185;-57
2022/04/04 09:58:54;;;;;;;5.87;4.03;;;;;;;;;;5003544;28;20200;-56
2022/04/04 10:01:20;;;;;;;4.40;3.97;;;;;;;;;;5000297;28;20291;-58
2022/04/04 10:03:46;;;;;;;5.57;4.13;;;;;;;;;;5004941;28;20287;-57
2022/04/04 10:06:12;;;;;;;5.77;4.00;;;;;;;;;;5001531;28;20296;-57
2022/04/04 10:08:38;;;;;;;6.80;4.23;;;;;;;;;;4999158;28;20224;-56
2022/04/04 10:11:07;;;;;;;6.70;4.37;;;;;;;;;;4999951;28;20200;-56
2022/04/04 10:13:33;;;;;;;10.60;4.80;;;;;;;;;;5003533;28;20213;-57
2022/04/04 10:15:59;;;;;;;6.77;4.67;;;;;;;;;;5001141;28;20478;-56
2022/04/04 10:18:25;;;;;;;7.33;4.70;;;;;;;;;;5011957;28;20622;-57
2022/04/04 10:20:53;;;;;;;6.43;4.33;;;;;;;;;;4999284;28;20571;-57
2022/04/04 10:23:19;;;;;;;5.37;4.40;;;;;;;;;;5007729;28;20221;-57
2022/04/04 10:25:45;;;;;;;6.70;4.83;;;;;;;;;;5016102;28;20208;-56
2022/04/04 10:28:12;;;;;;;5.87;4.73;;;;;;;;;;5016345;28;20228;-57
2022/04/04 10:30:40;;;;;;;5.53;4.87;;;;;;;;;;5010898;28;20239;-57
2022/04/04 10:33:11;;;;;;;5.17;4.33;;;;;;;;;;5010769;28;20247;-57
2022/04/04 10:35:37;;;;;;;7.93;4.50;;;;;;;;;;5011233;28;20274;-57
2022/04/04 10:38:04;;;;;;;6.20;4.80;;;;;;;;;;4999444;28;20232;-57
2022/04/04 10:40:31;;;;;;;5.37;4.40;;;;;;;;;;4991612;28;21172;-57
2022/04/04 10:43:06;;;;;;;7.83;4.73;;;;;;;;;;4993303;28;20548;-56
2022/04/04 10:45:32;;;;;;;6.57;4.37;;;;;;;;;;5008442;28;20678;-57
2022/04/04 10:48:07;;;;;;;4.33;3.93;;;;;;;;;;5016316;28;20300;-57
2022/04/04 10:50:35;;;;;;;5.60;4.53;;;;;;;;;;5011719;28;20189;-57
2022/04/04 10:53:01;;;;;;;6.77;4.53;;;;;;;;;;5005294;28;20189;-56
2022/04/04 10:55:27;;;;;;;5.07;4.03;;;;;;;;;;4988486;28;20205;-57
2022/04/04 10:58:00;;;;;;;5.87;4.20;;;;;;;;;;4997487;28;20193;-55
2022/04/04 11:00:32;;;;;;;5.97;4.40;;;;;;;;;;5010041;28;20284;-57
2022/04/04 11:03:00;;;;;;;5.17;4.17;;;;;;;;;;5014223;28;20289;-56
2022/04/04 11:08:12;;;;;;;5.10;3.93;;;;;;;;;;5001447;28;20228;-57
2022/04/04 11:10:44;;;;;;;4.87;4.07;;;;;;;;;;5005109;28;20223;-57
2022/04/04 11:13:12;;;;;;;6.17;4.10;;;;;;;;;;5004154;28;20866;-57
2022/04/04 11:15:55;;;;;;;5.40;4.53;;;;;;;;;;5006229;28;20304;-57
2022/04/04 11:18:21;;;;;;;4.40;4.00;;;;;;;;;;5008809;28;20185;-56
2022/04/04 11:20:50;;;;;;;5.17;4.10;;;;;;;;;;4994614;28;21008;-56
2022/04/04 11:23:17;;;;;;;6.67;4.40;;;;;;;;;;4996814;28;20280;-57
2022/04/04 11:25:55;;;;;;;6.00;5.00;;;;;;;;;;4987919;28;20232;-56
2022/04/04 11:28:24;;;;;;;5.20;4.70;;;;;;;;;;5002361;28;20232;-57
2022/04/04 11:30:54;;;;;;;6.03;4.73;;;;;;;;;;5011986;28;20720;-57
2022/04/04 11:33:22;;;;;;;6.83;5.00;;;;;;;;;;5009602;28;20182;-56
2022/04/04 11:35:49;;;;;;;6.60;4.77;;;;;;;;;;5009788;28;20192;-57
2022/04/04 11:38:19;;;;;;;6.20;4.70;;;;;;;;;;5012572;28;20740;-56
2022/04/04 11:40:49;;;;;;;4.87;4.40;;;;;;;;;;5010034;28;20193;-56
2022/04/04 11:43:16;;;;;;;7.70;5.07;;;;;;;;;;4996181;28;20284;-56
2022/04/04 11:45:43;;;;;;;5.20;4.70;;;;;;;;;;4996167;28;20872;-56
2022/04/04 11:48:23;;;;;;;5.43;4.80;;;;;;;;;;4998558;28;20213;-55
2022/04/04 11:50:51;;;;;;;5.50;4.80;;;;;;;;;;5000984;28;20181;-55
2022/04/04 11:53:20;;;;;;;6.20;5.00;;;;;;;;;;4997926;28;20368;-56
2022/04/04 11:55:46;;;;;;;7.30;5.30;;;;;;;;;;5010271;28;20654;-56
2022/04/04 11:58:13;;;;;;;5.60;4.83;;;;;;;;;;5011086;28;20197;-56
2022/04/04 12:00:42;;;;;;;6.43;5.17;;;;;;;;;;5003790;28;20659;-55
2022/04/04 12:03:11;;;;;;;12.60;5.40;;;;;;;;;;5002151;28;20189;-56
2022/04/04 12:05:38;;;;;;;5.40;4.90;;;;;;;;;;4993760;28;20198;-56
2022/04/04 12:08:06;;;;;;;6.07;5.10;;;;;;;;;;5001961;28;20545;-56
2022/04/04 12:10:35;;;;;;;6.10;5.10;;;;;;;;;;5005917;28;20196;-56
2022/04/04 12:13:04;;;;;;;8.63;6.03;;;;;;;;;;5015051;28;20239;-56
2022/04/04 12:15:31;;;;;;;6.00;5.30;;;;;;;;;;5013596;28;20670;-56
2022/04/04 12:17:57;;;;;;;5.93;4.83;;;;;;;;;;4989106;28;20205;-56
2022/04/04 12:20:23;;;;;;;6.10;5.00;;;;;;;;;;5005611;28;20193;-56
2022/04/04 12:25:33;;;;;;;5.80;5.27;;;;;;;;;;4988920;28;20228;-55
2022/04/04 12:28:00;;;;;;;7.93;5.23;;;;;;;;;;5007958;28;20240;-56
2022/04/04 12:30:37;;;;;;;6.93;5.33;;;;;;;;;;5005684;28;20720;-56
2022/04/04 12:33:26;;;;;;;7.27;5.57;;;;;;;;;;5008645;28;21742;-56
2022/04/04 12:35:52;;;;;;;6.00;5.23;;;;;;;;;;4994879;28;20650;-56
2022/04/04 12:38:28;;;;;;;5.90;5.27;;;;;;;;;;5001219;28;20216;-56
2022/04/04 12:41:01;;;;;;;6.00;5.40;;;;;;;;;;4992587;28;20197;-56
2022/04/04 12:43:27;;;;;;;5.80;5.27;;;;;;;;;;4996793;28;20438;-56
2022/04/04 12:45:53;;;;;;;7.03;5.80;;;;;;;;;;4987351;28;20298;-55
2022/04/04 12:48:21;;;;;;;6.93;5.63;;;;;;;;;;4997288;28;20209;-56
2022/04/04 12:50:47;;;;;;;6.87;6.03;;;;;;;;;;5004169;28;20552;-56
2022/04/04 12:53:13;;;;;;;6.43;5.83;;;;;;;;;;5004245;28;20193;-55
2022/04/04 12:55:40;;;;;;;8.70;6.03;;;;;;;;;;4999680;28;20285;-56
2022/04/04 12:58:15;;;;;;;6.57;5.53;;;;;;;;;;4995707;28;20721;-56
2022/04/04 13:00:42;;;;;;;6.43;5.47;;;;;;;;;;4987318;28;20762;-56
2022/04/04 13:03:37;;;;;;;6.07;5.33;;;;;;;;;;4998545;28;20209;-56
2022/04/04 13:06:04;;;;;;;6.03;5.43;;;;;;;;;;4998137;28;20299;-56
2022/04/04 13:08:30;;;;;;;7.27;5.90;;;;;;;;;;5004762;28;20235;-56
2022/04/04 13:11:05;;;;;;;8.10;5.77;;;;;;;;;;5001516;28;20202;-56
2022/04/04 13:13:31;;;;;;;6.10;5.37;;;;;;;;;;5000184;28;20220;-56
2022/04/04 13:15:57;;;;;;;6.40;5.77;;;;;;;;;;4991591;28;20288;-56
2022/04/04 13:18:24;;;;;;;6.20;5.40;;;;;;;;;;4991425;28;20721;-55
2022/04/04 13:20:50;;;;;;;6.40;5.60;;;;;;;;;;4989597;28;20204;-56
2022/04/04 13:23:16;;;;;;;6.27;5.67;;;;;;;;;;5004653;28;20240;-56
2022/04/04 13:25:43;;;;;;;6.63;5.60;;;;;;;;;;5001294;28;20576;-56
2022/04/04 13:28:10;;;;;;;5.83;5.33;;;;;;;;;;5000874;28;20248;-56
2022/04/04 13:30:37;;;;;;;6.40;5.53;;;;;;;;;;5002246;28;20226;-56
2022/04/04 13:33:03;;;;;;;6.17;5.10;;;;;;;;;;5003218;28;20192;-55
2022/04/04 13:35:29;;;;;;;5.70;5.20;;;;;;;;;;4998185;28;20522;-55
2022/04/04 13:37:55;;;;;;;5.93;5.17;;;;;;;;;;4997548;28;20972;-57
2022/04/04 13:40:21;;;;;;;5.57;5.07;;;;;;;;;;4992429;28;20201;-56
2022/04/04 13:42:47;;;;;;;5.87;5.00;;;;;;;;;;4996161;28;20208;-56
2022/04/04 13:45:13;;;;;;;5.77;5.27;;;;;;;;;;4983282;28;20201;-56
2022/04/04 13:47:39;;;;;;;6.10;5.37;;;;;;;;;;4977822;28;20204;-55
2022/04/04 13:50:05;;;;;;;7.60;5.70;;;;;;;;;;4984901;28;20694;-55
2022/04/04 13:52:31;;;;;;;6.13;5.63;;;;;;;;;;4980237;28;20198;-55
2022/04/04 13:55:12;;;;;;;8.17;6.13;;;;;;;;;;4997647;28;20662;-56
2022/04/04 13:57:38;;;;;;;6.07;5.53;;;;;;;;;;4999262;28;20196;-56
2022/04/04 14:00:04;;;;;;;6.73;6.03;;;;;;;;;;4991352;28;20193;-55
2022/04/04 14:02:30;;;;;;;6.80;6.20;;;;;;;;;;4998107;28;20617;-55
2022/04/04 14:04:56;;;;;;;7.33;6.27;;;;;;;;;;4998854;28;20215;-56
2022/04/04 14:07:22;;;;;;;6.57;5.97;;;;;;;;;;5000449;28;20300;-56
2022/04/04 14:09:48;;;;;;;6.43;5.63;;;;;;;;;;4997200;28;20217;-55
2022/04/04 14:12:15;;;;;;;6.57;5.97;;;;;;;;;;5003054;28;20717;-56
2022/04/04 14:14:41;;;;;;;6.83;6.13;;;;;;;;;;5002273;28;20193;-56
2022/04/04 14:17:07;;;;;;;6.57;5.90;;;;;;;;;;5004200;28;20243;-54
2022/04/04 14:19:33;;;;;;;7.73;6.23;;;;;;;;;;5003865;28;20915;-55
2022/04/04 14:21:59;;;;;;;6.77;5.60;;;;;;;;;;5006485;28;20288;-55
2022/04/04 14:24:27;;;;;;;6.37;5.80;;;;;;;;;;5006995;28;20255;-55
2022/04/04 14:26:53;;;;;;;7.23;5.83;;;;;;;;;;5000247;28;20554;-55
2022/04/04 14:29:21;;;;;;;6.70;5.90;;;;;;;;;;5003544;28;20722;-55
2022/04/04 14:31:48;;;;;;;7.07;6.30;;;;;;;;;;5003794;28;20283;-55
2022/04/04 14:34:14;;;;;;;7.30;5.87;;;;;;;;;;4994280;28;20641;-55
2022/04/04 14:36:40;;;;;;;6.47;5.83;;;;;;;;;;5005712;28;20181;-55
2022/04/04 14:39:07;;;;;;;6.10;5.60;;;;;;;;;;4995294;28;20221;-55
2022/04/04 14:41:34;;;;;;;6.43;5.77;;;;;;;;;;5004304;28;20312;-54
2022/04/04 14:44:01;;;;;;;7.03;5.50;;;;;;;;;;5006696;28;20568;-54
2022/04/04 14:46:29;;;;;;;7.17;5.67;;;;;;;;;;4999829;28;20343;-56